createdAt,value
2018-08-16T00:01:46.466Z,9.63
2018-08-16T00:04:17.530Z,9.53
2018-08-16T00:06:48.510Z,9.10
2018-08-16T00:09:19.526Z,7.95
2018-08-16T00:11:50.513Z,7.78
2018-08-16T00:14:21.488Z,8.28
2018-08-16T00:16:52.525Z,8.45
2018-08-16T00:19:23.514Z,8.48
2018-08-16T00:21:54.609Z,8.10
2018-08-16T00:24:25.566Z,7.97
2018-08-16T00:26:56.553Z,8.55
2018-08-16T00:29:27.562Z,7.75
2018-08-16T00:31:58.494Z,7.67
2018-08-16T00:34:29.519Z,8.30
2018-08-16T00:37:00.534Z,9.15
2018-08-16T00:39:31.501Z,7.92
2018-08-16T00:42:02.502Z,8.88
2018-08-16T00:44:33.510Z,7.97
2018-08-16T00:47:04.513Z,10.28
2018-08-16T00:49:35.545Z,8.70
2018-08-16T00:52:06.565Z,8.58
2018-08-16T00:54:37.558Z,22.35
2018-08-16T00:57:08.535Z,8.80
2018-08-16T00:59:39.521Z,8.88
2018-08-16T01:02:10.533Z,9.13
2018-08-16T01:04:41.538Z,9.13
2018-08-16T01:07:12.565Z,9.03
2018-08-16T01:09:43.534Z,8.75
2018-08-16T01:12:14.518Z,9.48
2018-08-16T01:14:45.626Z,8.60
2018-08-16T01:17:16.479Z,9.68
2018-08-16T01:19:47.517Z,10.00
2018-08-16T01:22:18.522Z,9.63
2018-08-16T01:24:49.503Z,9.70
2018-08-16T01:27:20.517Z,9.05
2018-08-16T01:29:51.534Z,10.00
2018-08-16T01:32:22.503Z,9.23
2018-08-16T01:34:53.527Z,9.48
2018-08-16T01:37:24.520Z,10.08
2018-08-16T01:39:55.515Z,9.83
2018-08-16T01:42:26.486Z,9.83
2018-08-16T01:44:57.504Z,9.58
2018-08-16T01:47:29.010Z,9.93
2018-08-16T01:50:00.254Z,9.58
2018-08-16T01:52:31.368Z,10.43
2018-08-16T01:55:02.522Z,10.40
2018-08-16T01:57:33.477Z,10.58
2018-08-16T02:00:06.533Z,11.03
2018-08-16T02:02:37.565Z,11.03
2018-08-16T02:05:08.891Z,11.57
2018-08-16T02:07:39.606Z,10.65
2018-08-16T02:10:10.814Z,11.22
2018-08-16T02:12:41.611Z,10.93
2018-08-16T02:15:14.447Z,10.38
2018-08-16T02:17:45.492Z,10.85
2018-08-16T02:20:16.521Z,10.88
2018-08-16T02:22:47.543Z,10.48
2018-08-16T02:25:18.487Z,10.35
2018-08-16T02:27:49.476Z,11.00
2018-08-16T02:30:20.539Z,11.20
2018-08-16T02:32:51.487Z,10.32
2018-08-16T02:35:22.521Z,11.18
2018-08-16T02:37:53.509Z,10.38
2018-08-16T02:40:24.496Z,11.12
2018-08-16T02:42:56.200Z,10.53
2018-08-16T02:45:27.562Z,9.68
2018-08-16T02:47:58.513Z,9.75
2018-08-16T02:50:31.509Z,10.75
2018-08-16T02:53:02.561Z,10.80
2018-08-16T02:55:33.503Z,10.60
2018-08-16T02:58:04.526Z,10.43
2018-08-16T03:00:35.543Z,10.53
2018-08-16T03:03:06.581Z,10.38
2018-08-16T03:05:37.508Z,11.35
2018-08-16T03:08:09.012Z,10.48
2018-08-16T03:10:40.241Z,11.05
2018-08-16T03:13:11.377Z,10.15
2018-08-16T03:15:42.453Z,9.73
2018-08-16T03:18:13.544Z,11.00
2018-08-16T03:20:44.497Z,10.30
2018-08-16T03:23:15.481Z,11.03
2018-08-16T03:25:46.526Z,10.10
2018-08-16T03:28:17.471Z,10.35
2018-08-16T03:30:48.508Z,11.28
2018-08-16T03:33:19.504Z,11.63
2018-08-16T03:35:50.497Z,9.70
2018-08-16T03:38:21.501Z,10.58
2018-08-16T03:40:52.541Z,10.32
2018-08-16T03:43:23.553Z,10.80
2018-08-16T03:45:54.567Z,10.78
2018-08-16T03:48:25.468Z,10.60
2018-08-16T03:50:56.708Z,11.05
2018-08-16T03:53:27.570Z,11.38
2018-08-16T03:55:58.505Z,11.12
2018-08-16T03:58:29.498Z,10.80
2018-08-16T04:01:00.493Z,10.40
2018-08-16T04:03:31.798Z,11.10
2018-08-16T04:06:02.638Z,10.45
2018-08-16T04:08:33.541Z,10.18
2018-08-16T04:11:04.542Z,10.70
2018-08-16T04:13:35.525Z,10.32
2018-08-16T04:16:06.555Z,10.58
2018-08-16T04:18:37.489Z,11.15
2018-08-16T04:21:08.507Z,10.10
2018-08-16T04:23:39.564Z,10.60
2018-08-16T04:28:55.425Z,11.90
2018-08-16T04:31:26.518Z,11.60
2018-08-16T04:33:57.785Z,11.45
2018-08-16T04:36:28.615Z,11.08
2018-08-16T04:38:59.510Z,12.18
2018-08-16T04:41:30.564Z,12.70
2018-08-16T04:44:01.509Z,11.60
2018-08-16T04:46:32.517Z,10.80
2018-08-16T04:49:03.558Z,11.68
2018-08-16T04:51:34.596Z,11.12
2018-08-16T04:54:05.503Z,10.35
2018-08-16T04:56:36.514Z,11.10
2018-08-16T04:59:07.494Z,11.22
2018-08-16T05:01:38.529Z,10.82
2018-08-16T05:04:09.495Z,11.63
2018-08-16T05:06:40.510Z,11.20
2018-08-16T05:09:11.526Z,11.83
2018-08-16T05:11:42.774Z,11.40
2018-08-16T05:14:13.569Z,10.65
2018-08-16T05:16:44.517Z,13.43
2018-08-16T05:19:15.541Z,11.53
2018-08-16T05:21:46.572Z,12.18
2018-08-16T05:24:17.580Z,12.82
2018-08-16T05:26:48.597Z,11.78
2018-08-16T05:29:19.556Z,13.10
2018-08-16T05:31:50.540Z,12.13
2018-08-16T05:34:21.634Z,11.50
2018-08-16T05:36:52.569Z,11.50
2018-08-16T05:39:23.490Z,10.82
2018-08-16T05:41:54.485Z,11.75
2018-08-16T05:44:25.468Z,12.93
2018-08-16T05:46:56.536Z,11.65
2018-08-16T05:49:27.515Z,12.40
2018-08-16T05:51:58.576Z,11.35
2018-08-16T05:54:30.045Z,11.75
2018-08-16T05:57:01.390Z,11.05
2018-08-16T05:59:32.507Z,10.78
2018-08-16T06:02:03.523Z,11.30
2018-08-16T06:04:34.493Z,12.00
2018-08-16T06:07:05.501Z,11.00
2018-08-16T06:09:36.489Z,11.28
2018-08-16T06:12:07.512Z,12.53
2018-08-16T06:14:38.444Z,10.70
2018-08-16T06:17:09.580Z,10.90
2018-08-16T06:19:41.724Z,15.32
2018-08-16T06:22:12.659Z,11.03
2018-08-16T06:24:43.577Z,10.25
2018-08-16T06:27:14.493Z,10.70
2018-08-16T06:29:45.519Z,10.25
2018-08-16T06:32:16.492Z,9.45
2018-08-16T06:34:47.520Z,10.00
2018-08-16T06:37:18.504Z,10.23
2018-08-16T06:39:49.473Z,9.90
2018-08-16T06:42:20.497Z,11.43
2018-08-16T06:44:51.490Z,10.32
2018-08-16T06:47:22.499Z,9.08
2018-08-16T06:49:53.494Z,9.70
2018-08-16T06:52:24.523Z,10.35
2018-08-16T06:54:55.457Z,9.98
2018-08-16T06:57:26.524Z,9.95
2018-08-16T06:59:57.513Z,9.73
2018-08-16T07:02:28.622Z,10.05
2018-08-16T07:04:59.581Z,9.60
2018-08-16T07:07:30.525Z,10.18
2018-08-16T07:10:01.461Z,9.88
2018-08-16T07:12:32.561Z,10.28
2018-08-16T07:15:03.487Z,10.13
2018-08-16T07:17:34.491Z,10.28
2018-08-16T07:20:06.387Z,12.65
2018-08-16T07:22:37.502Z,11.68
2018-08-16T07:25:09.409Z,10.10
2018-08-16T07:27:40.485Z,9.95
2018-08-16T07:30:12.512Z,10.63
2018-08-16T07:32:43.489Z,11.38
2018-08-16T07:35:14.485Z,10.18
2018-08-16T07:37:45.522Z,10.30
2018-08-16T07:40:16.508Z,10.13
2018-08-16T07:42:47.513Z,10.25
2018-08-16T07:45:18.503Z,12.63
2018-08-16T07:47:49.543Z,9.70
2018-08-16T07:50:20.524Z,10.03
2018-08-16T07:52:51.538Z,7.47
2018-08-16T07:55:22.509Z,9.90
2018-08-16T07:57:53.534Z,9.88
2018-08-16T08:00:24.526Z,9.80
2018-08-16T08:02:55.526Z,10.10
2018-08-16T08:05:26.509Z,9.50
2018-08-16T08:07:57.524Z,7.05
2018-08-16T08:10:28.627Z,9.90
2018-08-16T08:12:59.542Z,6.10
2018-08-16T08:15:30.593Z,10.20
2018-08-16T08:18:01.531Z,5.37
2018-08-16T08:20:32.525Z,9.40
2018-08-16T08:23:03.521Z,6.20
2018-08-16T08:25:34.603Z,8.68
2018-08-16T08:28:06.019Z,9.08
2018-08-16T08:30:37.290Z,6.20
2018-08-16T08:33:08.398Z,7.83
2018-08-16T08:35:39.465Z,8.98
2018-08-16T08:38:18.179Z,6.03
2018-08-16T08:40:49.299Z,8.75
2018-08-16T08:43:43.284Z,8.28
2018-08-16T08:46:14.361Z,9.45
2018-08-16T08:48:45.357Z,7.30
2018-08-16T08:51:16.390Z,8.90
2018-08-16T08:55:09.198Z,6.22
2018-08-16T08:59:00.475Z,9.78
2018-08-16T09:01:31.497Z,7.80
2018-08-16T09:04:02.515Z,8.63
2018-08-16T09:06:33.486Z,5.95
2018-08-16T09:09:05.503Z,7.62
2018-08-16T09:11:59.531Z,5.55
2018-08-16T09:14:53.488Z,7.58
2018-08-16T09:17:24.538Z,5.90
2018-08-16T09:19:55.487Z,5.10
2018-08-16T09:22:26.473Z,7.60
2018-08-16T09:24:57.485Z,5.80
2018-08-16T09:27:28.302Z,7.28
2018-08-16T09:30:35.010Z,6.25
2018-08-16T09:33:28.777Z,6.72
2018-08-16T09:35:59.621Z,6.05
2018-08-16T09:38:30.537Z,4.65
2018-08-16T09:41:01.554Z,7.22
2018-08-16T09:43:32.481Z,3.95
2018-08-16T09:47:27.295Z,8.95
2018-08-16T09:49:58.346Z,3.95
2018-08-16T09:52:29.379Z,4.95
2018-08-16T09:55:00.619Z,3.60
2018-08-16T09:57:31.539Z,4.10
2018-08-16T10:00:05.506Z,3.35
2018-08-16T10:02:36.539Z,5.50
2018-08-16T10:05:07.472Z,2.90
2018-08-16T10:07:38.481Z,4.60
2018-08-16T10:12:30.553Z,3.27
2018-08-16T10:15:01.494Z,4.90
2018-08-16T10:17:32.473Z,4.05
2018-08-16T10:20:03.501Z,3.35
2018-08-16T10:22:34.493Z,3.40
2018-08-16T10:25:05.611Z,5.45
2018-08-16T10:27:36.585Z,2.25
2018-08-16T10:30:10.407Z,2.95
2018-08-16T10:32:41.497Z,3.52
2018-08-16T10:35:12.502Z,4.35
2018-08-16T10:37:43.468Z,3.10
2018-08-16T10:40:14.524Z,2.92
2018-08-16T10:42:45.501Z,4.53
2018-08-16T10:45:16.523Z,2.52
2018-08-16T10:47:47.487Z,2.47
2018-08-16T10:50:18.558Z,5.33
2018-08-16T10:52:49.536Z,2.55
2018-08-16T10:55:20.526Z,2.77
2018-08-16T10:57:51.503Z,3.65
2018-08-16T11:00:24.445Z,3.52
2018-08-16T11:02:55.495Z,3.22
2018-08-16T11:05:26.513Z,2.80
2018-08-16T11:07:57.496Z,2.00
2018-08-16T11:10:28.785Z,3.12
2018-08-16T11:12:59.581Z,2.65
2018-08-16T11:15:31.602Z,4.28
2018-08-16T11:18:02.513Z,2.65
2018-08-16T11:20:33.478Z,1.70
2018-08-16T11:23:05.536Z,1.87
2018-08-16T11:25:36.497Z,2.40
2018-08-16T11:28:08.377Z,2.05
2018-08-16T11:30:39.577Z,1.80
2018-08-16T11:33:12.183Z,3.08
2018-08-16T11:35:43.625Z,3.30
2018-08-16T11:38:14.595Z,4.08
2018-08-16T11:40:45.516Z,2.02
2018-08-16T11:43:16.532Z,1.98
2018-08-16T11:45:47.506Z,1.92
2018-08-16T11:48:18.517Z,2.00
2018-08-16T11:50:49.516Z,2.58
2018-08-16T11:53:20.506Z,3.47
2018-08-16T11:55:51.534Z,3.58
2018-08-16T11:58:22.518Z,2.90
2018-08-16T12:00:53.488Z,3.30
2018-08-16T12:03:24.515Z,2.27
2018-08-16T12:05:55.521Z,2.83
2018-08-16T12:08:26.535Z,2.80
2018-08-16T12:10:57.476Z,2.00
2018-08-16T12:13:28.450Z,2.10
2018-08-16T12:15:59.530Z,1.90
2018-08-16T12:18:30.489Z,6.72
2018-08-16T12:21:01.595Z,2.15
2018-08-16T12:26:12.575Z,4.97
2018-08-16T12:28:43.541Z,1.72
2018-08-16T12:31:14.514Z,1.70
2018-08-16T12:33:45.651Z,2.20
2018-08-16T12:36:16.743Z,3.77
2018-08-16T12:38:48.247Z,2.50
2018-08-16T12:43:49.791Z,6.12
2018-08-16T12:46:20.684Z,9.53
2018-08-16T12:48:51.574Z,16.23
2018-08-16T12:51:22.573Z,3.87
2018-08-16T12:53:53.563Z,3.42
2018-08-16T12:56:24.505Z,1.90
2018-08-16T12:58:55.652Z,1.87
2018-08-16T13:01:27.301Z,3.05
2018-08-16T13:03:58.417Z,2.90
2018-08-16T13:06:29.546Z,1.67
2018-08-16T13:09:00.574Z,1.80
2018-08-16T13:11:31.575Z,1.97
2018-08-16T13:14:02.623Z,2.40
2018-08-16T13:16:33.913Z,3.40
2018-08-16T13:19:05.402Z,2.35
2018-08-16T13:21:36.667Z,2.10
2018-08-16T13:24:07.573Z,2.30
2018-08-16T13:26:38.505Z,2.25
2018-08-16T13:29:09.557Z,2.13
2018-08-16T13:31:40.510Z,2.50
2018-08-16T13:34:11.599Z,2.30
2018-08-16T13:36:42.548Z,2.50
2018-08-16T13:39:15.029Z,2.27
2018-08-16T13:41:46.303Z,1.87
2018-08-16T13:44:17.399Z,2.50
2018-08-16T13:46:48.507Z,2.70
2018-08-16T13:49:19.492Z,2.98
2018-08-16T13:51:50.563Z,2.07
2018-08-16T13:54:21.498Z,3.20
2018-08-16T13:56:52.522Z,2.00
2018-08-16T13:59:23.498Z,1.70
2018-08-16T14:01:54.494Z,1.87
2018-08-16T14:04:25.481Z,2.00
2018-08-16T14:06:56.548Z,2.77
2018-08-16T14:09:27.529Z,2.73
2018-08-16T14:11:58.561Z,2.33
2018-08-16T14:14:29.534Z,2.03
2018-08-16T14:17:00.518Z,2.70
2018-08-16T14:19:31.526Z,1.90
2018-08-16T14:22:02.535Z,3.33
2018-08-16T14:24:33.497Z,1.77
2018-08-16T14:27:04.525Z,2.03
2018-08-16T14:29:35.522Z,2.08
2018-08-16T14:32:06.585Z,2.97
2018-08-16T14:34:37.509Z,2.33
2018-08-16T14:37:08.626Z,1.80
2018-08-16T14:39:39.499Z,2.87
2018-08-16T14:42:10.500Z,1.97
2018-08-16T14:44:41.501Z,3.72
2018-08-16T14:47:12.520Z,1.80
2018-08-16T14:49:43.522Z,3.67
2018-08-16T14:52:14.493Z,2.07
2018-08-16T14:54:45.514Z,1.80
2018-08-16T14:57:16.550Z,1.47
2018-08-16T14:59:47.456Z,2.27
2018-08-16T15:02:18.494Z,2.00
2018-08-16T15:04:49.814Z,2.50
2018-08-16T15:07:20.615Z,2.80
2018-08-16T15:09:51.536Z,2.90
2018-08-16T15:12:23.422Z,1.75
2018-08-16T15:14:54.519Z,2.58
2018-08-16T15:17:25.502Z,1.95
2018-08-16T15:19:56.556Z,2.33
2018-08-16T15:22:27.523Z,2.10
2018-08-16T15:24:58.722Z,3.65
2018-08-16T15:27:29.594Z,2.70
2018-08-16T15:30:00.489Z,2.95
2018-08-16T15:32:31.510Z,2.40
2018-08-16T15:35:02.559Z,3.42
2018-08-16T15:37:33.620Z,1.95
2018-08-16T15:40:04.598Z,3.50
2018-08-16T15:42:35.501Z,2.60
2018-08-16T15:45:06.558Z,3.47
2018-08-16T15:47:37.510Z,2.98
2018-08-16T15:50:12.581Z,4.00
2018-08-16T15:52:43.654Z,2.52
2018-08-16T15:55:14.477Z,3.77
2018-08-16T15:57:45.525Z,4.30
2018-08-16T16:00:16.622Z,3.20
2018-08-16T16:02:48.221Z,3.17
2018-08-16T16:05:19.381Z,2.40
2018-08-16T16:07:50.396Z,2.70
2018-08-16T16:10:21.545Z,39.05
2018-08-16T16:12:52.498Z,2.90
2018-08-16T16:15:23.530Z,2.75
2018-08-16T16:17:54.512Z,2.47
2018-08-16T16:20:25.510Z,3.70
2018-08-16T16:22:56.506Z,3.15
2018-08-16T16:25:27.546Z,3.47
2018-08-16T16:27:58.531Z,2.70
2018-08-16T16:30:29.583Z,5.25
2018-08-16T16:33:00.519Z,2.77
2018-08-16T16:35:31.597Z,7.03
2018-08-16T16:38:03.640Z,3.40
2018-08-16T16:40:34.674Z,4.80
2018-08-16T16:43:06.028Z,4.83
2018-08-16T16:45:37.377Z,5.25
2018-08-16T16:48:09.294Z,4.03
2018-08-16T16:50:40.397Z,5.35
2018-08-16T16:53:12.552Z,5.10
2018-08-16T16:55:44.241Z,6.55
2018-08-16T17:00:46.503Z,2.58
2018-08-16T17:03:17.525Z,3.00
2018-08-16T17:05:48.513Z,3.58
2018-08-16T17:08:19.547Z,7.37
2018-08-16T17:10:50.503Z,3.92
2018-08-16T17:13:21.598Z,4.33
2018-08-16T17:15:52.846Z,3.27
2018-08-16T17:18:24.215Z,3.00
2018-08-16T17:20:55.415Z,3.83
2018-08-16T17:23:26.587Z,4.35
2018-08-16T17:25:57.578Z,11.48
2018-08-16T17:28:28.554Z,35.60
2018-08-16T17:30:59.588Z,5.80
2018-08-16T17:33:30.621Z,2.67
2018-08-16T17:36:01.765Z,3.80
2018-08-16T17:38:32.621Z,2.95
2018-08-16T17:41:03.980Z,3.33
2018-08-16T17:43:34.769Z,3.47
2018-08-16T17:46:05.649Z,3.70
2018-08-16T17:48:36.625Z,2.60
2018-08-16T17:51:07.590Z,4.42
2018-08-16T17:53:38.607Z,3.72
2018-08-16T17:56:09.855Z,4.92
2018-08-16T17:58:41.048Z,2.67
2018-08-16T18:01:12.383Z,3.45
2018-08-16T18:03:44.056Z,2.80
2018-08-16T18:06:15.393Z,3.50
2018-08-16T18:08:46.585Z,3.20
2018-08-16T18:11:17.485Z,4.05
2018-08-16T18:13:48.594Z,3.25
2018-08-16T18:16:20.597Z,3.70
2018-08-16T18:18:51.556Z,4.95
2018-08-16T18:21:22.492Z,7.35
2018-08-16T18:23:53.525Z,5.17
2018-08-16T18:26:24.552Z,3.62
2018-08-16T18:28:55.633Z,4.97
2018-08-16T18:31:26.738Z,3.67
2018-08-16T18:33:57.634Z,5.30
2018-08-16T18:36:29.239Z,5.42
2018-08-16T18:39:00.421Z,6.10
2018-08-16T18:41:31.619Z,7.95
2018-08-16T18:44:02.691Z,5.10
2018-08-16T18:46:34.286Z,4.20
2018-08-16T18:49:10.515Z,5.10
2018-08-16T18:51:42.030Z,4.08
2018-08-16T18:54:13.652Z,4.72
2018-08-16T18:56:47.983Z,5.22
2018-08-16T18:59:19.699Z,4.17
2018-08-16T19:01:51.301Z,5.15
2018-08-16T19:04:22.605Z,4.05
2018-08-16T19:06:53.802Z,4.25
2018-08-16T19:09:25.521Z,4.53
2018-08-16T19:11:56.577Z,5.45
2018-08-16T19:14:27.835Z,4.15
2018-08-16T19:16:59.402Z,4.95
2018-08-16T19:19:30.635Z,4.42
2018-08-16T19:22:05.364Z,6.00
2018-08-16T19:24:37.244Z,4.75
2018-08-16T19:29:39.384Z,4.97
2018-08-16T19:32:10.493Z,6.17
2018-08-16T19:34:41.555Z,3.47
2018-08-16T19:37:12.782Z,5.87
2018-08-16T19:39:43.759Z,5.58
2018-08-16T19:42:15.025Z,7.08
2018-08-16T19:44:46.787Z,5.15
2018-08-16T19:47:18.023Z,5.50
2018-08-16T19:49:49.396Z,5.55
2018-08-16T19:52:20.547Z,3.98
2018-08-16T19:54:51.587Z,5.87
2018-08-16T19:57:22.611Z,3.77
2018-08-16T19:59:53.590Z,6.47
2018-08-16T20:02:24.528Z,3.80
2018-08-16T20:04:55.806Z,5.22
2018-08-16T20:07:27.185Z,3.70
2018-08-16T20:09:58.483Z,5.60
2018-08-16T20:12:29.603Z,4.85
2018-08-16T20:15:00.571Z,5.10
2018-08-16T20:17:32.201Z,4.58
2018-08-16T20:20:03.378Z,4.67
2018-08-16T20:22:34.535Z,4.33
2018-08-16T20:25:05.662Z,3.67
2018-08-16T20:27:36.541Z,4.45
2018-08-16T20:30:08.202Z,2.90
2018-08-16T20:32:39.362Z,7.28
2018-08-16T20:35:10.438Z,6.20
2018-08-16T20:37:41.530Z,5.62
2018-08-16T20:40:12.530Z,3.80
2018-08-16T20:42:43.699Z,4.80
2018-08-16T20:45:14.593Z,5.35
2018-08-16T20:47:45.576Z,6.15
2018-08-16T20:50:16.534Z,4.12
2018-08-16T20:52:47.555Z,7.45
2018-08-16T20:55:18.541Z,7.15
2018-08-16T20:57:49.522Z,4.80
2018-08-16T21:05:22.508Z,9.85
2018-08-16T21:07:53.516Z,13.75
2018-08-16T21:10:24.508Z,9.93
2018-08-16T21:12:55.484Z,5.62
2018-08-16T21:15:26.501Z,4.42
2018-08-16T21:17:57.538Z,3.85
2018-08-16T21:20:28.535Z,5.95
2018-08-16T21:22:59.489Z,4.00
2018-08-16T21:25:30.488Z,4.95
2018-08-16T21:28:01.494Z,5.28
2018-08-16T21:30:32.502Z,4.08
2018-08-16T21:33:03.486Z,4.67
2018-08-16T21:35:34.480Z,7.03
2018-08-16T21:38:05.514Z,10.65
2018-08-16T21:40:36.785Z,14.63
2018-08-16T21:43:07.665Z,8.65
2018-08-16T21:45:38.505Z,8.50
2018-08-16T21:48:09.513Z,7.12
2018-08-16T21:50:40.442Z,7.72
2018-08-16T21:53:11.477Z,5.50
2018-08-16T21:55:42.512Z,7.58
2018-08-16T21:58:13.472Z,6.03
2018-08-16T22:00:55.229Z,5.95
2018-08-16T22:03:27.579Z,4.50
2018-08-16T22:06:05.435Z,8.50
2018-08-16T22:08:45.727Z,5.72
2018-08-16T22:11:16.661Z,6.60
2018-08-16T22:13:47.533Z,4.60
2018-08-16T22:16:18.481Z,6.83
2018-08-16T22:18:49.468Z,6.42
2018-08-16T22:21:20.517Z,6.22
2018-08-16T22:23:51.491Z,4.40
2018-08-16T22:26:22.529Z,11.30
2018-08-16T22:28:53.488Z,6.03
2018-08-16T22:31:24.542Z,4.22
2018-08-16T22:33:55.598Z,5.10
2018-08-16T22:36:26.555Z,5.85
2018-08-16T22:38:57.513Z,3.92
2018-08-16T22:41:28.497Z,5.00
2018-08-16T22:44:00.380Z,5.33
2018-08-16T22:46:31.501Z,5.03
2018-08-16T22:49:02.461Z,3.77
2018-08-16T22:51:33.499Z,6.00
2018-08-16T22:54:04.481Z,4.20
2018-08-16T22:56:35.501Z,5.90
2018-08-16T22:59:06.654Z,4.95
2018-08-16T23:01:37.631Z,5.50
2018-08-16T23:04:08.585Z,6.87
2018-08-16T23:06:39.484Z,4.30
2018-08-16T23:09:10.494Z,5.30
2018-08-16T23:11:41.477Z,4.55
2018-08-16T23:14:12.542Z,5.90
2018-08-16T23:16:43.522Z,4.62
2018-08-16T23:19:14.498Z,5.97
2018-08-16T23:21:45.511Z,5.22
2018-08-16T23:24:16.450Z,4.90
2018-08-16T23:26:47.486Z,4.65
2018-08-16T23:29:18.553Z,5.00
2018-08-16T23:31:49.489Z,5.60
2018-08-16T23:34:20.409Z,5.35
2018-08-16T23:36:51.489Z,5.37
2018-08-16T23:39:22.473Z,4.12
2018-08-16T23:41:53.524Z,5.00
2018-08-16T23:44:24.530Z,4.80
2018-08-16T23:46:55.509Z,5.58
2018-08-16T23:52:10.488Z,6.57
2018-08-16T23:54:41.456Z,4.00
2018-08-16T23:57:12.497Z,5.20
2018-08-16T23:59:43.485Z,4.47
